Terminal Aerodrome Forecast
Issued by NWS

Home | Current Version | Previous Version | Graphics & Text | Print | Product List | Glossary On
Versions: 1 2 3 4 5 6 7 8 9 10 11 12 13 14
000
FTUS43 KGRB 271721
TAFMTW
TAF
KMTW 271721Z 2718/2818 17009KT P6SM SCT040 SCT070
     FM280500 16003KT P6SM VCSH BKN060
     FM281200 04004KT P6SM VCSH OVC035
     FM281400 35004KT 6SM -SHRA OVC035
      TEMPO 2814/2818 3SM -SHRA OVC024=

USA.gov is the U.S. government's official web portal to all federal, state and local government web resources and services.